LELO

Logroño-Agoncillo Airport

Logroño, Spain
TAF LELO 161700Z 1618/1703 29009KT 9999 FEW025 SCT045 PROB30 TEMPO 1618/1619 FEW030TCU PROB40 TEMPO 1623/1703 2500 BR SCT005
Issued Valid From Valid To
Jul-16 @ 17:00 UTC
(7 hours ago)
Jul-16 @ 18:00 UTC
(6 hours ago)
Jul-17 @ 03:00 UTC
(in 3 hours)
Jul-16 @ 18:00 to Jul-17 @ 03:00
TAF LELO 161700Z 1618/1703 29009KT 9999 FEW025 SCT045
Wind Visibility Clouds
290° at 9 knots 10,000+ meters
  • Few at 2,500' AGL
  • Scattered at 4,500' AGL
Expired Click to View Jul-16 @ 18:00 to Jul-16 @ 19:00
PROB30 TEMPO 1618/1619 FEW030TCU
Clouds
  • Few at 3,000' AGL
Temporary  (Probability 40%) Jul-16 @ 23:00 to Jul-17 @ 03:00
PROB40 TEMPO 1623/1703 2500 BR SCT005
Visibility Clouds Conditions
2,494 meters
  • Scattered at 500' AGL
  • Mist
TAF LELO 161700Z 1618/1703 29009KT 9999 FEW025 SCT045 PROB30 TEMPO 1618/1619 FEW030TCU PROB40 TEMPO 1623/1703 2500 BR SCT005
Issued Jul-16 @ 17:00 UTC
(7 hours ago)
Valid From Jul-16 @ 18:00 UTC
(6 hours ago)
Valid To Jul-17 @ 03:00 UTC
(in 3 hours)
Jul-16 @ 18:00 - Jul-17 @ 03:00
Wind Visibility
290° at 9 knots 10,000+ meters
Clouds
  • Few at 2,500' AGL
  • Scattered at 4,500' AGL
Jul-16 @ 18:00 - Jul-16 @ 19:00
Clouds
  • Few at 3,000' AGL
Probability 40% Temporary Jul-16 @ 23:00 - Jul-17 @ 03:00
Clouds
  • Scattered at 500' AGL
Conditions
  • Mist